TimeEST,TemperatureF,Dew PointF,Humidity,Sea Level PressureIn,VisibilityMPH,Wind Direction,Wind SpeedMPH,Gust SpeedMPH,PrecipitationIn,Events,Conditions,WindDirDegrees,DateUTC
12:54 AM,45.0,30.0,56,29.79,10.0,NNW,10.4,-,N/A,,Clear,340,2012-12-19 05:54:00
1:54 AM,42.1,28.9,60,29.83,10.0,NW,4.6,-,N/A,,Clear,310,2012-12-19 06:54:00
2:54 AM,42.1,28.9,60,29.85,10.0,NW,5.8,-,N/A,,Clear,310,2012-12-19 07:54:00
3:54 AM,39.0,28.9,67,29.85,10.0,Calm,Calm,-,N/A,,Clear,0,2012-12-19 08:54:00
4:54 AM,36.0,28.9,76,29.85,10.0,WSW,4.6,-,N/A,,Clear,240,2012-12-19 09:54:00
5:54 AM,37.0,30.0,76,29.88,10.0,Calm,Calm,-,N/A,,Clear,0,2012-12-19 10:54:00
6:54 AM,36.0,28.9,76,29.88,10.0,Calm,Calm,-,N/A,,Clear,0,2012-12-19 11:54:00
7:54 AM,36.0,30.0,79,29.88,10.0,West,3.5,-,N/A,,Partly Cloudy,270,2012-12-19 12:54:00
8:54 AM,46.9,36.0,66,29.90,10.0,West,5.8,-,N/A,,Partly Cloudy,280,2012-12-19 13:54:00
9:54 AM,50.0,33.1,52,29.91,10.0,NW,9.2,-,N/A,,Mostly Cloudy,320,2012-12-19 14:54:00
10:54 AM,52.0,32.0,47,29.92,10.0,NW,12.7,-,N/A,,Partly Cloudy,310,2012-12-19 15:54:00
11:54 AM,55.0,34.0,45,29.92,10.0,NW,10.4,21.9,N/A,,Partly Cloudy,310,2012-12-19 16:54:00
12:54 PM,55.0,33.1,43,29.93,10.0,NNW,15.0,23.0,N/A,,Clear,330,2012-12-19 17:54:00
1:54 PM,55.0,34.0,45,29.94,10.0,NNW,16.1,26.5,N/A,,Clear,330,2012-12-19 18:54:00
2:54 PM,54.0,33.1,45,29.95,10.0,NNW,15.0,24.2,N/A,,Partly Cloudy,330,2012-12-19 19:54:00
3:54 PM,53.1,34.0,48,29.97,10.0,NNW,15.0,-,N/A,,Clear,330,2012-12-19 20:54:00
4:54 PM,51.1,34.0,52,30.00,10.0,NNW,12.7,-,N/A,,Clear,330,2012-12-19 21:54:00
5:54 PM,48.0,34.0,58,30.04,10.0,NNW,5.8,-,N/A,,Clear,330,2012-12-19 22:54:00
6:54 PM,48.0,34.0,58,30.07,10.0,North,6.9,-,N/A,,Clear,350,2012-12-19 23:54:00
7:54 PM,46.0,33.1,61,30.10,10.0,NNW,4.6,-,N/A,,Clear,330,2012-12-20 00:54:00
8:54 PM,45.0,32.0,60,30.12,10.0,North,6.9,-,N/A,,Clear,350,2012-12-20 01:54:00
9:54 PM,44.1,30.9,60,30.14,10.0,Calm,Calm,-,N/A,,Clear,0,2012-12-20 02:54:00
10:54 PM,39.0,30.0,70,30.16,10.0,NW,4.6,-,N/A,,Clear,320,2012-12-20 03:54:00
11:54 PM,37.9,30.0,73,30.17,10.0,NNW,3.5,-,N/A,,Clear,330,2012-12-20 04:54:00